Главная страница
METAR-TAF:

METAR-TAF

Аэропорты :

Пярну, Эстония

широта: 58-25-09N, долгота: 024-28-22E, высота над уровнем моря: 14 м

Текущие метеонаблюдения

Эта сводка был подготовлена 31 минут назад, в 19:50 UTC
Ветер 3 Узел от западный-юго-западный
Температура 13°C
Влажность 77%
Давление 1015 hPa
Видимость 10 км и более

METAR: EEPU 131950Z AUTO 25003KT 9999 FEW083/// SCT190/// 13/09 Q1015

Время: 23:21 (20:21 UTC)


TAF: отсутствует

Метеонаблюдения и прогнозы для более 4000 аэропортов (сводки METAR и TAF).

Имеющиеся станции представлены на карте желтыми и красными точками.

Чтобы увидеть название станции, наведите на нее мышь.

Затем щелкните, чтобы увидеть метеонаблюдения и метеопрогнозы.

Управление картой: чтобы увеличить масштаб, щелкните зеленые кнопки с черным крестиком; чтобы уменьшить масштаб, щелкните зеленую кнопку с тире; для просмотра соседних карт щелкайте зеленые стрелки.


METAR-TAF: